createdAt,value
2022-10-20T00:01:24.104Z,65.89
2022-10-20T00:05:27.197Z,66.05
2022-10-20T00:09:30.196Z,66.16
2022-10-20T00:13:33.304Z,65.88
2022-10-20T00:17:37.719Z,66.08
2022-10-20T00:21:40.749Z,66.07
2022-10-20T00:25:43.831Z,66.27
2022-10-20T00:29:49.191Z,66.61
2022-10-20T00:33:54.030Z,66.56
2022-10-20T00:37:57.119Z,66.49
2022-10-20T00:42:03.742Z,66.75
2022-10-20T00:46:07.043Z,66.99
2022-10-20T00:50:15.041Z,66.95
2022-10-20T00:54:21.465Z,66.80
2022-10-20T00:58:25.806Z,67.47
2022-10-20T01:02:29.095Z,67.54
2022-10-20T01:06:33.624Z,67.66
2022-10-20T01:10:42.450Z,67.83
2022-10-20T01:14:52.209Z,67.79
2022-10-20T01:19:03.377Z,67.58
2022-10-20T01:23:39.167Z,67.51
2022-10-20T01:27:45.772Z,67.24
2022-10-20T01:31:57.316Z,67.07
2022-10-20T01:36:05.823Z,67.12
2022-10-20T01:40:17.511Z,67.43
2022-10-20T01:44:26.158Z,67.68
2022-10-20T01:48:33.259Z,67.64
2022-10-20T01:52:36.522Z,68.12
2022-10-20T01:56:47.062Z,68.33
2022-10-20T02:00:54.074Z,68.55
2022-10-20T02:05:12.320Z,68.56
2022-10-20T02:09:21.055Z,68.70
2022-10-20T02:13:25.648Z,68.90
2022-10-20T02:17:30.468Z,68.95
2022-10-20T02:21:33.459Z,69.24
2022-10-20T02:25:39.341Z,69.46
2022-10-20T02:29:46.135Z,69.10
2022-10-20T02:33:51.565Z,69.09
2022-10-20T02:37:54.595Z,69.09
2022-10-20T02:41:57.600Z,69.02
2022-10-20T02:46:00.670Z,69.01
2022-10-20T02:50:05.427Z,68.89
2022-10-20T02:54:08.420Z,68.99
2022-10-20T02:58:11.549Z,69.06
2022-10-20T03:02:14.571Z,69.21
2022-10-20T03:06:18.982Z,69.22
2022-10-20T03:10:22.077Z,68.86
2022-10-20T03:14:25.147Z,68.75
2022-10-20T03:18:28.222Z,68.55
2022-10-20T03:22:32.649Z,68.78
2022-10-20T03:26:35.782Z,68.67
2022-10-20T03:30:38.827Z,69.07
2022-10-20T03:34:41.838Z,69.06
2022-10-20T03:38:46.440Z,69.36
2022-10-20T03:42:49.444Z,69.34
2022-10-20T03:46:52.463Z,69.43
2022-10-20T03:50:55.466Z,69.57
2022-10-20T03:54:59.846Z,69.38
2022-10-20T04:03:07.356Z,69.23
2022-10-20T04:07:10.366Z,69.26
2022-10-20T04:11:14.876Z,69.05
2022-10-20T04:15:19.292Z,69.01
2022-10-20T04:19:22.268Z,69.21
2022-10-20T04:23:30.680Z,69.37
2022-10-20T04:27:35.686Z,69.49
2022-10-20T04:31:41.747Z,69.35
2022-10-20T04:35:46.783Z,69.34
2022-10-20T04:39:51.155Z,69.39
2022-10-20T04:43:55.532Z,69.54
2022-10-20T04:47:58.571Z,69.63
2022-10-20T04:52:01.848Z,70.00
2022-10-20T04:56:06.083Z,69.90
2022-10-20T05:00:11.560Z,69.99
2022-10-20T05:04:20.950Z,70.29
2022-10-20T05:08:23.991Z,70.46
2022-10-20T05:12:27.921Z,70.51
2022-10-20T05:16:32.767Z,70.27
2022-10-20T05:20:41.141Z,70.13
2022-10-20T05:24:48.942Z,70.17
2022-10-20T05:28:52.752Z,70.28
2022-10-20T05:32:57.257Z,70.29
2022-10-20T05:37:00.329Z,70.45
2022-10-20T05:41:07.207Z,70.72
2022-10-20T05:45:10.858Z,70.57
2022-10-20T05:49:17.650Z,70.89
2022-10-20T05:53:20.919Z,70.97
2022-10-20T05:57:24.229Z,71.16
2022-10-20T06:01:38.761Z,71.04
2022-10-20T06:05:43.235Z,71.31
2022-10-20T06:09:46.250Z,71.42
2022-10-20T06:13:51.923Z,71.56
2022-10-20T06:17:56.130Z,71.51
2022-10-20T06:22:03.973Z,71.93
2022-10-20T06:26:12.311Z,72.00
2022-10-20T06:30:15.565Z,72.34
2022-10-20T06:34:20.717Z,72.68
2022-10-20T06:38:25.606Z,72.94
2022-10-20T06:42:29.463Z,73.08
2022-10-20T06:46:34.318Z,73.34
2022-10-20T06:50:37.347Z,73.61
2022-10-20T06:54:41.739Z,73.76
2022-10-20T06:58:46.708Z,74.13
2022-10-20T07:02:51.056Z,74.03
2022-10-20T07:06:54.591Z,74.24
2022-10-20T07:11:03.735Z,74.11
2022-10-20T07:15:07.890Z,74.14
2022-10-20T07:19:11.221Z,74.35
2022-10-20T07:23:14.407Z,74.28
2022-10-20T07:27:18.771Z,74.16
2022-10-20T07:31:23.830Z,73.98
2022-10-20T07:35:26.908Z,73.72
2022-10-20T07:39:29.915Z,74.03
2022-10-20T07:43:34.346Z,73.69
2022-10-20T07:47:38.298Z,73.60
2022-10-20T07:51:42.327Z,73.47
2022-10-20T07:55:46.060Z,73.34
2022-10-20T07:59:50.463Z,73.25
2022-10-20T08:03:53.490Z,73.27
2022-10-20T08:07:58.294Z,73.10
2022-10-20T08:12:01.436Z,73.06
2022-10-20T08:16:07.846Z,72.63
2022-10-20T08:20:23.609Z,72.85
2022-10-20T08:24:29.501Z,72.58
2022-10-20T08:28:32.551Z,72.50
2022-10-20T08:32:37.284Z,72.40
2022-10-20T08:36:40.566Z,72.15
2022-10-20T08:40:45.020Z,71.73
2022-10-20T08:44:48.796Z,72.14
2022-10-20T08:48:53.307Z,71.41
2022-10-20T08:53:00.339Z,71.03
2022-10-20T08:57:03.374Z,70.59
2022-10-20T09:01:19.187Z,69.97
2022-10-20T09:05:28.700Z,69.54
2022-10-20T09:09:33.184Z,69.70
2022-10-20T09:13:38.451Z,69.08
2022-10-20T09:17:43.115Z,68.94
2022-10-20T09:21:52.474Z,68.48
2022-10-20T09:25:55.545Z,68.15
2022-10-20T09:29:58.610Z,67.64
2022-10-20T09:34:01.649Z,66.67
2022-10-20T09:38:19.853Z,66.34
2022-10-20T09:42:26.480Z,66.62
2022-10-20T09:46:32.118Z,66.14
2022-10-20T09:50:39.594Z,66.00
2022-10-20T09:54:48.755Z,65.81
2022-10-20T09:58:52.013Z,64.34
2022-10-20T10:03:25.675Z,63.40
2022-10-20T10:07:32.868Z,63.31
2022-10-20T10:11:38.074Z,63.73
2022-10-20T10:15:41.946Z,63.27
2022-10-20T10:19:52.530Z,60.97
2022-10-20T10:24:01.202Z,60.82
2022-10-20T10:28:21.262Z,61.40
2022-10-20T10:32:27.285Z,61.41
2022-10-20T10:36:34.208Z,61.17
2022-10-20T10:40:46.650Z,61.26
2022-10-20T10:45:00.751Z,60.92
2022-10-20T10:49:26.327Z,60.50
2022-10-20T10:53:43.044Z,60.74
2022-10-20T10:57:57.862Z,60.01
2022-10-20T11:02:25.183Z,59.39
2022-10-20T11:06:39.671Z,59.18
2022-10-20T11:10:53.071Z,59.04
2022-10-20T11:15:16.603Z,59.35
2022-10-20T11:19:39.751Z,59.16
2022-10-20T11:24:03.636Z,59.30
2022-10-20T11:28:27.877Z,57.96
2022-10-20T11:36:48.552Z,58.03
2022-10-20T11:41:01.374Z,58.47
2022-10-20T11:45:18.111Z,58.25
2022-10-20T11:49:21.243Z,58.50
2022-10-20T11:53:39.573Z,58.05
2022-10-20T11:57:55.371Z,57.57
2022-10-20T12:02:47.484Z,56.67
2022-10-20T12:07:10.646Z,57.78
2022-10-20T12:11:23.066Z,58.42
2022-10-20T12:15:28.875Z,57.27
2022-10-20T12:19:33.217Z,56.75
2022-10-20T12:24:03.725Z,56.81
2022-10-20T12:28:41.272Z,56.81
2022-10-20T12:33:16.635Z,56.73
2022-10-20T12:37:21.671Z,56.69
2022-10-20T12:41:30.142Z,57.01
2022-10-20T12:45:41.537Z,57.12
2022-10-20T12:49:54.565Z,57.30
2022-10-20T12:54:02.574Z,57.39
2022-10-20T12:58:13.995Z,57.20
2022-10-20T13:03:01.327Z,57.54
2022-10-20T13:07:05.819Z,57.78
2022-10-20T13:11:34.419Z,57.93
2022-10-20T13:15:39.950Z,57.73
2022-10-20T13:19:47.721Z,58.07
2022-10-20T13:23:58.777Z,57.76
2022-10-20T13:28:07.730Z,57.79
2022-10-20T13:32:21.455Z,57.84
2022-10-20T13:36:36.638Z,57.79
2022-10-20T13:40:49.966Z,58.14
2022-10-20T13:45:03.249Z,57.92
2022-10-20T13:49:39.143Z,57.89
2022-10-20T13:53:45.601Z,58.14
2022-10-20T13:57:55.576Z,58.38
2022-10-20T14:02:01.393Z,58.14
2022-10-20T14:06:04.411Z,58.04
2022-10-20T14:10:09.465Z,57.83
2022-10-20T14:14:19.239Z,57.35
2022-10-20T14:18:25.154Z,57.71
2022-10-20T14:22:28.235Z,57.11
2022-10-20T14:26:32.529Z,57.35
2022-10-20T14:30:40.148Z,57.56
2022-10-20T14:34:57.426Z,57.48
2022-10-20T14:39:01.495Z,57.24
2022-10-20T14:43:08.373Z,57.31
2022-10-20T14:47:15.746Z,57.44
2022-10-20T14:51:37.567Z,57.58
2022-10-20T14:55:40.746Z,57.73
2022-10-20T14:59:51.634Z,58.13
2022-10-20T15:04:16.171Z,57.74
2022-10-20T15:08:26.222Z,58.21
2022-10-20T15:12:33.048Z,58.34
2022-10-20T15:16:42.699Z,58.44
2022-10-20T15:20:47.843Z,58.65
2022-10-20T15:24:51.173Z,58.91
2022-10-20T15:28:54.363Z,59.05
2022-10-20T15:32:58.036Z,59.22
2022-10-20T15:37:02.671Z,59.26
2022-10-20T15:41:06.416Z,59.64
2022-10-20T15:45:17.301Z,59.93
2022-10-20T15:49:21.059Z,59.83
2022-10-20T15:53:25.666Z,59.87
2022-10-20T15:57:29.114Z,60.58
2022-10-20T16:01:32.388Z,60.33
2022-10-20T16:05:35.603Z,60.70
2022-10-20T16:09:40.078Z,61.08
2022-10-20T16:13:43.503Z,61.39
2022-10-20T16:21:59.187Z,61.42
2022-10-20T16:26:08.073Z,61.60
2022-10-20T16:30:11.304Z,61.97
2022-10-20T16:34:14.337Z,61.58
2022-10-20T16:38:17.347Z,62.03
2022-10-20T16:42:21.749Z,62.22
2022-10-20T16:46:24.776Z,62.46
2022-10-20T16:50:28.102Z,62.33
2022-10-20T16:54:31.467Z,62.50
2022-10-20T16:58:36.538Z,62.97
2022-10-20T17:02:42.916Z,63.11
2022-10-20T17:06:45.980Z,63.35
2022-10-20T17:10:49.078Z,63.39
2022-10-20T17:14:53.425Z,63.22
2022-10-20T17:18:57.380Z,63.21
2022-10-20T17:23:00.378Z,63.79
2022-10-20T17:27:03.392Z,63.79
2022-10-20T17:31:10.077Z,64.16
2022-10-20T17:35:14.551Z,64.29
2022-10-20T17:39:17.707Z,64.29
2022-10-20T17:43:20.745Z,64.70
2022-10-20T17:47:25.263Z,64.83
2022-10-20T17:51:31.965Z,65.01
2022-10-20T17:55:37.619Z,65.09
2022-10-20T17:59:52.362Z,64.99
2022-10-20T18:04:00.362Z,64.93
2022-10-20T18:08:03.592Z,65.25
2022-10-20T18:12:06.801Z,65.16
2022-10-20T18:16:11.599Z,65.12
2022-10-20T18:20:16.141Z,65.14
2022-10-20T18:24:19.787Z,65.40
2022-10-20T18:28:23.237Z,65.57
2022-10-20T18:32:26.449Z,65.62
2022-10-20T18:36:31.358Z,65.69
2022-10-20T18:40:34.748Z,65.88
2022-10-20T18:44:38.187Z,66.00
2022-10-20T18:48:42.395Z,66.30
2022-10-20T18:52:46.891Z,66.13
2022-10-20T18:56:49.887Z,66.14
2022-10-20T19:00:58.755Z,66.36
2022-10-20T19:05:01.795Z,66.36
2022-10-20T19:09:08.127Z,66.68
2022-10-20T19:13:11.222Z,66.60
2022-10-20T19:17:14.236Z,66.65
2022-10-20T19:21:18.504Z,66.51
2022-10-20T19:25:22.875Z,66.52
2022-10-20T19:29:25.997Z,66.59
2022-10-20T19:33:29.534Z,66.59
2022-10-20T19:37:33.069Z,66.50
2022-10-20T19:41:37.521Z,66.57
2022-10-20T19:45:40.687Z,66.46
2022-10-20T19:49:43.932Z,66.56
2022-10-20T19:53:48.108Z,66.74
2022-10-20T19:57:53.256Z,66.90
2022-10-20T20:01:56.566Z,66.35
2022-10-20T20:06:00.584Z,66.60
2022-10-20T20:10:03.784Z,66.81
2022-10-20T20:14:10.295Z,66.53
2022-10-20T20:18:13.771Z,66.62
2022-10-20T20:22:16.805Z,66.41
2022-10-20T20:26:19.821Z,66.51
2022-10-20T20:30:24.260Z,66.69
2022-10-20T20:34:27.255Z,66.48
2022-10-20T20:38:32.516Z,66.12
2022-10-20T20:42:35.541Z,66.04
2022-10-20T20:46:39.961Z,65.96
2022-10-20T20:50:43.027Z,65.94
2022-10-20T20:54:46.015Z,65.89
2022-10-20T20:58:49.991Z,65.65
2022-10-20T21:07:03.023Z,65.45
2022-10-20T21:11:07.993Z,65.84
2022-10-20T21:15:11.776Z,65.17
2022-10-20T21:19:16.204Z,65.21
2022-10-20T21:23:19.211Z,65.21
2022-10-20T21:27:22.221Z,65.14
2022-10-20T21:31:28.026Z,65.12
2022-10-20T21:35:32.729Z,64.99
2022-10-20T21:39:35.744Z,65.14
2022-10-20T21:43:42.673Z,65.19
2022-10-20T21:47:45.674Z,65.03
2022-10-20T21:51:52.610Z,64.78
2022-10-20T21:55:56.015Z,65.11
2022-10-20T21:59:59.233Z,64.89
2022-10-20T22:04:02.254Z,64.50
2022-10-20T22:08:07.396Z,65.22
2022-10-20T22:12:10.617Z,64.78
2022-10-20T22:16:15.584Z,64.67
2022-10-20T22:20:18.814Z,64.79
2022-10-20T22:24:23.980Z,64.64
2022-10-20T22:28:27.440Z,64.37
2022-10-20T22:32:30.673Z,64.61
2022-10-20T22:36:33.828Z,64.45
2022-10-20T22:40:38.207Z,64.76
2022-10-20T22:44:41.204Z,64.77
2022-10-20T22:48:46.293Z,64.79
2022-10-20T22:52:50.952Z,64.18
2022-10-20T22:56:55.497Z,64.19
2022-10-20T23:00:59.755Z,64.57
2022-10-20T23:05:03.050Z,64.55
2022-10-20T23:09:06.163Z,64.53
2022-10-20T23:13:10.607Z,64.53
2022-10-20T23:17:13.873Z,64.48
2022-10-20T23:21:17.532Z,64.62
2022-10-20T23:25:20.557Z,64.54
2022-10-20T23:29:25.533Z,64.70
2022-10-20T23:33:28.800Z,64.93
2022-10-20T23:37:32.169Z,64.74
2022-10-20T23:41:35.228Z,64.84
2022-10-20T23:45:39.567Z,64.88
2022-10-20T23:49:42.601Z,65.22
2022-10-20T23:53:45.614Z,65.10
2022-10-20T23:57:50.691Z,65.12
